sensor_id;sensor_type;location;lat;lon;timestamp;temperature;humidity
23717;DHT22;22094;52.130;5.598;2022-08-02T00:02:18;12.70;99.90
23717;DHT22;22094;52.130;5.598;2022-08-02T00:04:45;12.80;99.90
23717;DHT22;22094;52.130;5.598;2022-08-02T00:07:10;12.80;99.90
23717;DHT22;22094;52.130;5.598;2022-08-02T00:09:36;12.80;99.90
23717;DHT22;22094;52.130;5.598;2022-08-02T00:12:02;12.80;99.90
23717;DHT22;22094;52.130;5.598;2022-08-02T00:14:27;12.70;99.90
23717;DHT22;22094;52.130;5.598;2022-08-02T00:16:53;12.70;99.90
23717;DHT22;22094;52.130;5.598;2022-08-02T00:19:18;12.70;99.90
23717;DHT22;22094;52.130;5.598;2022-08-02T00:21:44;12.70;99.90
23717;DHT22;22094;52.130;5.598;2022-08-02T00:24:10;12.70;99.90
23717;DHT22;22094;52.130;5.598;2022-08-02T00:26:36;12.70;99.90
23717;DHT22;22094;52.130;5.598;2022-08-02T00:29:01;12.50;99.90
23717;DHT22;22094;52.130;5.598;2022-08-02T00:31:27;12.50;99.90
23717;DHT22;22094;52.130;5.598;2022-08-02T00:33:52;12.40;99.90
23717;DHT22;22094;52.130;5.598;2022-08-02T00:36:18;12.30;99.90
23717;DHT22;22094;52.130;5.598;2022-08-02T00:38:44;12.30;99.90
23717;DHT22;22094;52.130;5.598;2022-08-02T00:41:16;12.30;99.90
23717;DHT22;22094;52.130;5.598;2022-08-02T00:43:43;12.20;99.90
23717;DHT22;22094;52.130;5.598;2022-08-02T00:46:09;12.10;99.90
23717;DHT22;22094;52.130;5.598;2022-08-02T00:48:35;12.30;99.90
23717;DHT22;22094;52.130;5.598;2022-08-02T00:51:00;12.10;99.90
23717;DHT22;22094;52.130;5.598;2022-08-02T00:53:26;12.00;99.90
23717;DHT22;22094;52.130;5.598;2022-08-02T00:55:52;12.00;99.90
23717;DHT22;22094;52.130;5.598;2022-08-02T00:58:17;12.00;99.90
23717;DHT22;22094;52.130;5.598;2022-08-02T01:00:43;12.00;99.90
23717;DHT22;22094;52.130;5.598;2022-08-02T01:03:09;11.90;99.90
23717;DHT22;22094;52.130;5.598;2022-08-02T01:05:34;12.00;99.90
23717;DHT22;22094;52.130;5.598;2022-08-02T01:08:01;12.10;99.90
23717;DHT22;22094;52.130;5.598;2022-08-02T01:10:26;12.00;99.90
23717;DHT22;22094;52.130;5.598;2022-08-02T01:12:52;12.00;99.90
23717;DHT22;22094;52.130;5.598;2022-08-02T01:15:18;12.00;99.90
23717;DHT22;22094;52.130;5.598;2022-08-02T01:18:00;11.90;99.90
23717;DHT22;22094;52.130;5.598;2022-08-02T01:24:34;11.90;99.90
23717;DHT22;22094;52.130;5.598;2022-08-02T01:26:41;11.90;99.90
23717;DHT22;22094;52.130;5.598;2022-08-02T01:34:48;11.80;99.90
23717;DHT22;22094;52.130;5.598;2022-08-02T01:37:20;11.90;99.90
23717;DHT22;22094;52.130;5.598;2022-08-02T01:39:51;11.90;99.90
23717;DHT22;22094;52.130;5.598;2022-08-02T01:42:20;11.80;99.90
23717;DHT22;22094;52.130;5.598;2022-08-02T01:44:48;11.80;99.90
23717;DHT22;22094;52.130;5.598;2022-08-02T01:47:18;11.80;99.90
23717;DHT22;22094;52.130;5.598;2022-08-02T01:49:47;11.90;99.90
23717;DHT22;22094;52.130;5.598;2022-08-02T01:52:14;11.90;99.90
23717;DHT22;22094;52.130;5.598;2022-08-02T01:54:49;11.80;99.90
23717;DHT22;22094;52.130;5.598;2022-08-02T01:57:17;11.80;99.90
23717;DHT22;22094;52.130;5.598;2022-08-02T01:59:45;11.80;99.90
23717;DHT22;22094;52.130;5.598;2022-08-02T02:02:12;11.80;99.90
23717;DHT22;22094;52.130;5.598;2022-08-02T02:04:39;11.80;99.90
23717;DHT22;22094;52.130;5.598;2022-08-02T02:07:06;11.80;99.90
23717;DHT22;22094;52.130;5.598;2022-08-02T02:09:36;11.80;99.90
23717;DHT22;22094;52.130;5.598;2022-08-02T02:12:03;11.90;99.90
23717;DHT22;22094;52.130;5.598;2022-08-02T02:14:30;11.90;99.90
23717;DHT22;22094;52.130;5.598;2022-08-02T02:16:58;11.90;99.90
23717;DHT22;22094;52.130;5.598;2022-08-02T02:19:25;11.90;99.90
23717;DHT22;22094;52.130;5.598;2022-08-02T02:21:52;11.90;99.90
23717;DHT22;22094;52.130;5.598;2022-08-02T02:24:18;11.90;99.90
23717;DHT22;22094;52.130;5.598;2022-08-02T02:26:45;11.90;99.90
23717;DHT22;22094;52.130;5.598;2022-08-02T02:29:11;11.90;99.90
23717;DHT22;22094;52.130;5.598;2022-08-02T02:31:39;11.90;99.90
23717;DHT22;22094;52.130;5.598;2022-08-02T02:34:11;11.90;99.90
23717;DHT22;22094;52.130;5.598;2022-08-02T02:36:40;11.90;99.90
23717;DHT22;22094;52.130;5.598;2022-08-02T02:39:07;11.80;99.90
23717;DHT22;22094;52.130;5.598;2022-08-02T02:41:36;11.80;99.90
23717;DHT22;22094;52.130;5.598;2022-08-02T02:44:02;11.80;99.90
23717;DHT22;22094;52.130;5.598;2022-08-02T02:46:30;11.80;99.90
23717;DHT22;22094;52.130;5.598;2022-08-02T02:48:57;11.80;99.90
23717;DHT22;22094;52.130;5.598;2022-08-02T02:51:23;11.80;99.90
23717;DHT22;22094;52.130;5.598;2022-08-02T02:53:50;11.70;99.90
23717;DHT22;22094;52.130;5.598;2022-08-02T02:56:17;11.70;99.90
23717;DHT22;22094;52.130;5.598;2022-08-02T02:58:43;11.70;99.90
23717;DHT22;22094;52.130;5.598;2022-08-02T03:01:09;11.60;99.90
23717;DHT22;22094;52.130;5.598;2022-08-02T03:04:01;11.60;99.90
23717;DHT22;22094;52.130;5.598;2022-08-02T03:06:27;11.60;99.90
23717;DHT22;22094;52.130;5.598;2022-08-02T03:08:53;11.60;99.90
23717;DHT22;22094;52.130;5.598;2022-08-02T03:11:19;11.70;99.90
23717;DHT22;22094;52.130;5.598;2022-08-02T03:13:45;11.80;99.90
23717;DHT22;22094;52.130;5.598;2022-08-02T03:16:11;11.80;99.90
23717;DHT22;22094;52.130;5.598;2022-08-02T03:18:39;11.80;99.90
23717;DHT22;22094;52.130;5.598;2022-08-02T03:21:08;11.90;99.90
23717;DHT22;22094;52.130;5.598;2022-08-02T03:23:36;12.00;99.90
23717;DHT22;22094;52.130;5.598;2022-08-02T03:26:03;12.10;99.90
23717;DHT22;22094;52.130;5.598;2022-08-02T03:28:28;12.10;99.90
23717;DHT22;22094;52.130;5.598;2022-08-02T03:30:54;12.10;99.90
23717;DHT22;22094;52.130;5.598;2022-08-02T03:33:21;12.10;99.90
23717;DHT22;22094;52.130;5.598;2022-08-02T03:35:49;12.10;99.90
23717;DHT22;22094;52.130;5.598;2022-08-02T03:38:17;12.10;99.90
23717;DHT22;22094;52.130;5.598;2022-08-02T03:40:45;12.20;99.90
23717;DHT22;22094;52.130;5.598;2022-08-02T03:43:11;12.20;99.90
23717;DHT22;22094;52.130;5.598;2022-08-02T03:45:39;12.30;99.90
23717;DHT22;22094;52.130;5.598;2022-08-02T03:48:07;12.30;99.90
23717;DHT22;22094;52.130;5.598;2022-08-02T03:50:35;12.40;99.90
23717;DHT22;22094;52.130;5.598;2022-08-02T03:53:02;12.30;99.90
23717;DHT22;22094;52.130;5.598;2022-08-02T03:55:27;12.30;99.90
23717;DHT22;22094;52.130;5.598;2022-08-02T03:57:53;12.40;99.90
23717;DHT22;22094;52.130;5.598;2022-08-02T04:00:20;12.40;99.90
23717;DHT22;22094;52.130;5.598;2022-08-02T04:02:46;12.50;99.90
23717;DHT22;22094;52.130;5.598;2022-08-02T04:05:12;12.40;99.90
23717;DHT22;22094;52.130;5.598;2022-08-02T04:07:38;12.40;99.90
23717;DHT22;22094;52.130;5.598;2022-08-02T04:10:04;12.40;99.90
23717;DHT22;22094;52.130;5.598;2022-08-02T04:12:30;12.30;99.90
23717;DHT22;22094;52.130;5.598;2022-08-02T04:14:56;12.40;99.90
23717;DHT22;22094;52.130;5.598;2022-08-02T04:17:22;12.50;99.90
23717;DHT22;22094;52.130;5.598;2022-08-02T04:20:12;12.60;99.90
23717;DHT22;22094;52.130;5.598;2022-08-02T04:22:46;12.70;99.90
23717;DHT22;22094;52.130;5.598;2022-08-02T04:25:15;12.70;99.90
23717;DHT22;22094;52.130;5.598;2022-08-02T04:27:42;12.80;99.90
23717;DHT22;22094;52.130;5.598;2022-08-02T04:30:09;12.80;99.90
23717;DHT22;22094;52.130;5.598;2022-08-02T04:32:36;12.80;99.90
23717;DHT22;22094;52.130;5.598;2022-08-02T04:35:02;12.80;99.90
23717;DHT22;22094;52.130;5.598;2022-08-02T04:37:28;12.80;99.90
23717;DHT22;22094;52.130;5.598;2022-08-02T04:39:53;12.90;99.90
23717;DHT22;22094;52.130;5.598;2022-08-02T04:42:23;12.90;99.90
23717;DHT22;22094;52.130;5.598;2022-08-02T04:44:50;12.90;99.90
23717;DHT22;22094;52.130;5.598;2022-08-02T04:47:16;12.90;99.90
23717;DHT22;22094;52.130;5.598;2022-08-02T04:49:42;13.00;99.90
23717;DHT22;22094;52.130;5.598;2022-08-02T04:52:08;13.20;99.90
23717;DHT22;22094;52.130;5.598;2022-08-02T04:57:00;17.20;99.90
23717;DHT22;22094;52.130;5.598;2022-08-02T04:59:25;14.00;99.90
23717;DHT22;22094;52.130;5.598;2022-08-02T05:06:43;16.10;99.90
23717;DHT22;22094;52.130;5.598;2022-08-02T05:14:00;15.70;99.90
23717;DHT22;22094;52.130;5.598;2022-08-02T05:16:26;14.80;99.90
23717;DHT22;22094;52.130;5.598;2022-08-02T05:18:52;14.70;99.90
23717;DHT22;22094;52.130;5.598;2022-08-02T05:23:43;14.40;99.90
23717;DHT22;22094;52.130;5.598;2022-08-02T05:31:01;15.10;99.90
23717;DHT22;22094;52.130;5.598;2022-08-02T05:33:26;15.10;99.90
23717;DHT22;22094;52.130;5.598;2022-08-02T05:35:52;15.20;99.90
23717;DHT22;22094;52.130;5.598;2022-08-02T05:43:13;18.20;99.90
23717;DHT22;22094;52.130;5.598;2022-08-02T05:48:05;20.20;99.90
23717;DHT22;22094;52.130;5.598;2022-08-02T05:53:14;17.50;99.90
23717;DHT22;22094;52.130;5.598;2022-08-02T05:55:52;17.00;99.90
23717;DHT22;22094;52.130;5.598;2022-08-02T05:58:42;19.10;99.90
23717;DHT22;22094;52.130;5.598;2022-08-02T06:01:10;17.50;99.90
23717;DHT22;22094;52.130;5.598;2022-08-02T06:03:44;21.20;99.90
23717;DHT22;22094;52.130;5.598;2022-08-02T06:08:45;19.10;99.90
23717;DHT22;22094;52.130;5.598;2022-08-02T06:11:14;19.00;99.90
23717;DHT22;22094;52.130;5.598;2022-08-02T06:13:41;19.40;99.90
23717;DHT22;22094;52.130;5.598;2022-08-02T06:16:08;19.50;99.90
23717;DHT22;22094;52.130;5.598;2022-08-02T06:18:34;19.60;99.90
23717;DHT22;22094;52.130;5.598;2022-08-02T06:21:04;18.50;99.90
23717;DHT22;22094;52.130;5.598;2022-08-02T06:23:31;18.50;99.90
23717;DHT22;22094;52.130;5.598;2022-08-02T06:25:57;20.30;99.90
23717;DHT22;22094;52.130;5.598;2022-08-02T06:35:58;20.80;99.90
23717;DHT22;22094;52.130;5.598;2022-08-02T06:38:27;20.40;99.90
23717;DHT22;22094;52.130;5.598;2022-08-02T07:00:51;21.90;99.90
23717;DHT22;22094;52.130;5.598;2022-08-02T07:03:17;22.20;99.90
23717;DHT22;22094;52.130;5.598;2022-08-02T07:08:16;22.10;99.90
23717;DHT22;22094;52.130;5.598;2022-08-02T07:30:10;21.80;99.90
23717;DHT22;22094;52.130;5.598;2022-08-02T07:35:03;22.40;99.90
23717;DHT22;22094;52.130;5.598;2022-08-02T07:37:31;22.40;99.90
23717;DHT22;22094;52.130;5.598;2022-08-02T07:42:24;22.50;99.90
23717;DHT22;22094;52.130;5.598;2022-08-02T07:54:34;24.50;99.90
23717;DHT22;22094;52.130;5.598;2022-08-02T08:18:58;27.20;99.90
23717;DHT22;22094;52.130;5.598;2022-08-02T08:45:44;24.70;99.90
23717;DHT22;22094;52.130;5.598;2022-08-02T08:48:12;24.60;99.90
23717;DHT22;22094;52.130;5.598;2022-08-02T08:55:36;24.60;99.90
23717;DHT22;22094;52.130;5.598;2022-08-02T08:58:03;24.90;99.90
23717;DHT22;22094;52.130;5.598;2022-08-02T09:07:50;26.80;99.90
23717;DHT22;22094;52.130;5.598;2022-08-02T09:10:35;25.30;99.90
23717;DHT22;22094;52.130;5.598;2022-08-02T09:13:10;25.30;99.90
23717;DHT22;22094;52.130;5.598;2022-08-02T09:18:03;27.60;99.90
23717;DHT22;22094;52.130;5.598;2022-08-02T09:23:07;25.80;99.90
23717;DHT22;22094;52.130;5.598;2022-08-02T09:30:26;25.70;99.90
23717;DHT22;22094;52.130;5.598;2022-08-02T09:35:35;25.80;99.90
23717;DHT22;22094;52.130;5.598;2022-08-02T09:38:11;25.50;99.90
23717;DHT22;22094;52.130;5.598;2022-08-02T09:40:39;26.00;99.90
23717;DHT22;22094;52.130;5.598;2022-08-02T09:52:54;26.10;99.90
23717;DHT22;22094;52.130;5.598;2022-08-02T10:17:17;28.00;99.90
23717;DHT22;22094;52.130;5.598;2022-08-02T10:19:44;28.50;99.90
23717;DHT22;22094;52.130;5.598;2022-08-02T10:22:14;28.40;99.90
23717;DHT22;22094;52.130;5.598;2022-08-02T10:27:13;28.60;99.90
23717;DHT22;22094;52.130;5.598;2022-08-02T10:32:11;27.90;99.90
23717;DHT22;22094;52.130;5.598;2022-08-02T10:34:46;27.90;99.90
23717;DHT22;22094;52.130;5.598;2022-08-02T10:37:13;28.00;99.90
23717;DHT22;22094;52.130;5.598;2022-08-02T10:47:21;28.40;99.90
23717;DHT22;22094;52.130;5.598;2022-08-02T10:57:32;28.10;99.90
23717;DHT22;22094;52.130;5.598;2022-08-02T11:00:09;28.10;99.90
23717;DHT22;22094;52.130;5.598;2022-08-02T11:05:08;28.20;99.90
23717;DHT22;22094;52.130;5.598;2022-08-02T11:07:42;27.90;99.90
23717;DHT22;22094;52.130;5.598;2022-08-02T11:17:53;28.50;99.90
23717;DHT22;22094;52.130;5.598;2022-08-02T11:22:48;29.10;99.90
23717;DHT22;22094;52.130;5.598;2022-08-02T11:27:51;27.40;99.90
23717;DHT22;22094;52.130;5.598;2022-08-02T11:37:43;31.20;99.90
23717;DHT22;22094;52.130;5.598;2022-08-02T11:40:14;30.10;99.90
23717;DHT22;22094;52.130;5.598;2022-08-02T11:42:43;30.20;99.90
23717;DHT22;22094;52.130;5.598;2022-08-02T11:45:11;30.10;99.90
23717;DHT22;22094;52.130;5.598;2022-08-02T11:47:48;30.30;99.90
23717;DHT22;22094;52.130;5.598;2022-08-02T11:52:42;30.40;99.90
23717;DHT22;22094;52.130;5.598;2022-08-02T11:55:13;30.60;99.90
23717;DHT22;22094;52.130;5.598;2022-08-02T11:57:39;31.00;99.90
23717;DHT22;22094;52.130;5.598;2022-08-02T12:00:16;30.50;99.90
23717;DHT22;22094;52.130;5.598;2022-08-02T12:02:46;30.20;99.90
23717;DHT22;22094;52.130;5.598;2022-08-02T12:05:17;30.90;99.90
23717;DHT22;22094;52.130;5.598;2022-08-02T12:07:44;31.80;99.90
23717;DHT22;22094;52.130;5.598;2022-08-02T12:12:54;30.70;99.90
23717;DHT22;22094;52.130;5.598;2022-08-02T12:30:57;30.70;99.70
23717;DHT22;22094;52.130;5.598;2022-08-02T12:33:27;31.10;99.50
23717;DHT22;22094;52.130;5.598;2022-08-02T12:43:23;31.90;97.50
23717;DHT22;22094;52.130;5.598;2022-08-02T12:45:55;31.40;97.10
23717;DHT22;22094;52.130;5.598;2022-08-02T12:48:36;31.60;96.70
23717;DHT22;22094;52.130;5.598;2022-08-02T12:58:48;31.60;95.80
23717;DHT22;22094;52.130;5.598;2022-08-02T13:01:23;32.00;95.10
23717;DHT22;22094;52.130;5.598;2022-08-02T13:47:38;32.60;90.30
23717;DHT22;22094;52.130;5.598;2022-08-02T13:50:05;33.50;90.30
23717;DHT22;22094;52.130;5.598;2022-08-02T14:12:01;33.60;87.80
23717;DHT22;22094;52.130;5.598;2022-08-02T16:16:35;35.80;90.10
23717;DHT22;22094;52.130;5.598;2022-08-02T16:19:02;34.40;89.00
23717;DHT22;22094;52.130;5.598;2022-08-02T16:23:55;34.20;87.70
23717;DHT22;22094;52.130;5.598;2022-08-02T16:58:02;31.30;92.50
23717;DHT22;22094;52.130;5.598;2022-08-02T17:12:38;29.00;95.80
23717;DHT22;22094;52.130;5.598;2022-08-02T17:15:05;28.90;96.00
23717;DHT22;22094;52.130;5.598;2022-08-02T17:22:25;29.50;96.40
23717;DHT22;22094;52.130;5.598;2022-08-02T17:32:11;28.40;98.20
23717;DHT22;22094;52.130;5.598;2022-08-02T17:37:05;28.00;98.90
23717;DHT22;22094;52.130;5.598;2022-08-02T17:44:26;26.80;99.40
23717;DHT22;22094;52.130;5.598;2022-08-02T17:52:08;27.60;99.90
23717;DHT22;22094;52.130;5.598;2022-08-02T17:54:34;27.60;99.90
23717;DHT22;22094;52.130;5.598;2022-08-02T17:59:26;27.60;99.90
23717;DHT22;22094;52.130;5.598;2022-08-02T18:01:57;27.20;99.90
23717;DHT22;22094;52.130;5.598;2022-08-02T18:04:24;27.30;99.90
23717;DHT22;22094;52.130;5.598;2022-08-02T18:06:55;27.20;99.90
23717;DHT22;22094;52.130;5.598;2022-08-02T18:09:21;27.20;99.90
23717;DHT22;22094;52.130;5.598;2022-08-02T18:14:14;27.10;99.90
23717;DHT22;22094;52.130;5.598;2022-08-02T18:16:43;27.10;99.90
23717;DHT22;22094;52.130;5.598;2022-08-02T18:19:09;27.00;99.90
23717;DHT22;22094;52.130;5.598;2022-08-02T18:21:35;27.00;99.90
23717;DHT22;22094;52.130;5.598;2022-08-02T18:24:01;27.10;99.90
23717;DHT22;22094;52.130;5.598;2022-08-02T18:26:27;27.00;99.90
23717;DHT22;22094;52.130;5.598;2022-08-02T18:28:54;26.90;99.90
23717;DHT22;22094;52.130;5.598;2022-08-02T18:31:20;26.80;99.90
23717;DHT22;22094;52.130;5.598;2022-08-02T18:36:16;26.70;99.90
23717;DHT22;22094;52.130;5.598;2022-08-02T18:38:41;26.70;99.90
23717;DHT22;22094;52.130;5.598;2022-08-02T18:43:35;26.50;99.90
23717;DHT22;22094;52.130;5.598;2022-08-02T18:46:03;26.40;99.90
23717;DHT22;22094;52.130;5.598;2022-08-02T18:48:31;26.40;99.90
23717;DHT22;22094;52.130;5.598;2022-08-02T18:50:57;26.30;99.90
23717;DHT22;22094;52.130;5.598;2022-08-02T18:53:22;26.20;99.90
23717;DHT22;22094;52.130;5.598;2022-08-02T18:55:49;26.20;99.90
23717;DHT22;22094;52.130;5.598;2022-08-02T18:58:14;26.20;99.90
23717;DHT22;22094;52.130;5.598;2022-08-02T19:00:47;26.10;99.90
23717;DHT22;22094;52.130;5.598;2022-08-02T19:03:13;25.90;99.90
23717;DHT22;22094;52.130;5.598;2022-08-02T19:05:39;25.90;99.90
23717;DHT22;22094;52.130;5.598;2022-08-02T19:08:05;25.80;99.90
23717;DHT22;22094;52.130;5.598;2022-08-02T19:10:31;25.80;99.90
23717;DHT22;22094;52.130;5.598;2022-08-02T19:13:03;25.70;99.90
23717;DHT22;22094;52.130;5.598;2022-08-02T19:15:28;25.40;99.90
23717;DHT22;22094;52.130;5.598;2022-08-02T19:17:54;25.50;99.90
23717;DHT22;22094;52.130;5.598;2022-08-02T19:20:21;25.30;99.90
23717;DHT22;22094;52.130;5.598;2022-08-02T19:22:47;25.20;99.90
23717;DHT22;22094;52.130;5.598;2022-08-02T19:25:14;25.10;99.90
23717;DHT22;22094;52.130;5.598;2022-08-02T19:27:42;25.00;99.90
23717;DHT22;22094;52.130;5.598;2022-08-02T19:30:08;24.90;99.90
23717;DHT22;22094;52.130;5.598;2022-08-02T19:32:34;24.90;99.90
23717;DHT22;22094;52.130;5.598;2022-08-02T19:35:00;24.80;99.90
23717;DHT22;22094;52.130;5.598;2022-08-02T19:37:29;24.70;99.90
23717;DHT22;22094;52.130;5.598;2022-08-02T19:39:54;24.70;99.90
23717;DHT22;22094;52.130;5.598;2022-08-02T19:42:21;24.80;99.90
23717;DHT22;22094;52.130;5.598;2022-08-02T19:44:46;24.50;99.90
23717;DHT22;22094;52.130;5.598;2022-08-02T19:47:17;24.40;99.90
23717;DHT22;22094;52.130;5.598;2022-08-02T19:49:46;24.30;99.90
23717;DHT22;22094;52.130;5.598;2022-08-02T19:52:20;24.20;99.90
23717;DHT22;22094;52.130;5.598;2022-08-02T19:54:45;24.10;99.90
23717;DHT22;22094;52.130;5.598;2022-08-02T19:57:14;24.20;99.90
23717;DHT22;22094;52.130;5.598;2022-08-02T19:59:39;24.10;99.90
23717;DHT22;22094;52.130;5.598;2022-08-02T20:02:05;24.00;99.90
23717;DHT22;22094;52.130;5.598;2022-08-02T20:04:31;23.80;99.90
23717;DHT22;22094;52.130;5.598;2022-08-02T20:06:56;23.80;99.90
23717;DHT22;22094;52.130;5.598;2022-08-02T20:09:22;23.70;99.90
23717;DHT22;22094;52.130;5.598;2022-08-02T20:11:52;23.60;99.90
23717;DHT22;22094;52.130;5.598;2022-08-02T20:14:18;23.60;99.90
23717;DHT22;22094;52.130;5.598;2022-08-02T20:16:43;23.60;99.90
23717;DHT22;22094;52.130;5.598;2022-08-02T20:19:12;23.40;99.90
23717;DHT22;22094;52.130;5.598;2022-08-02T20:21:38;23.50;99.90
23717;DHT22;22094;52.130;5.598;2022-08-02T20:24:07;23.40;99.90
23717;DHT22;22094;52.130;5.598;2022-08-02T20:26:37;23.40;99.90
23717;DHT22;22094;52.130;5.598;2022-08-02T20:29:05;23.30;99.90
23717;DHT22;22094;52.130;5.598;2022-08-02T20:31:31;23.30;99.90
23717;DHT22;22094;52.130;5.598;2022-08-02T20:33:57;23.20;99.90
23717;DHT22;22094;52.130;5.598;2022-08-02T20:36:26;23.20;99.90
23717;DHT22;22094;52.130;5.598;2022-08-02T20:38:52;23.10;99.90
23717;DHT22;22094;52.130;5.598;2022-08-02T20:41:18;23.10;99.90
23717;DHT22;22094;52.130;5.598;2022-08-02T20:43:43;23.00;99.90
23717;DHT22;22094;52.130;5.598;2022-08-02T20:46:09;23.00;99.90
23717;DHT22;22094;52.130;5.598;2022-08-02T20:48:34;22.90;99.90
23717;DHT22;22094;52.130;5.598;2022-08-02T20:51:00;22.90;99.90
23717;DHT22;22094;52.130;5.598;2022-08-02T20:53:26;22.90;99.90
23717;DHT22;22094;52.130;5.598;2022-08-02T20:55:53;22.80;99.90
23717;DHT22;22094;52.130;5.598;2022-08-02T20:58:19;22.80;99.90
23717;DHT22;22094;52.130;5.598;2022-08-02T21:00:46;22.70;99.90
23717;DHT22;22094;52.130;5.598;2022-08-02T21:03:13;22.60;99.90
23717;DHT22;22094;52.130;5.598;2022-08-02T21:05:42;22.50;99.90
23717;DHT22;22094;52.130;5.598;2022-08-02T21:08:11;22.50;99.90
23717;DHT22;22094;52.130;5.598;2022-08-02T21:10:39;22.40;99.90
23717;DHT22;22094;52.130;5.598;2022-08-02T21:13:05;22.50;99.90
23717;DHT22;22094;52.130;5.598;2022-08-02T21:15:32;22.20;99.90
23717;DHT22;22094;52.130;5.598;2022-08-02T21:17:58;22.20;99.90
23717;DHT22;22094;52.130;5.598;2022-08-02T21:20:26;22.20;99.90
23717;DHT22;22094;52.130;5.598;2022-08-02T21:22:52;22.10;99.90
23717;DHT22;22094;52.130;5.598;2022-08-02T21:25:19;22.00;99.90
23717;DHT22;22094;52.130;5.598;2022-08-02T21:27:46;22.00;99.90
23717;DHT22;22094;52.130;5.598;2022-08-02T21:30:13;21.80;99.90
23717;DHT22;22094;52.130;5.598;2022-08-02T21:32:42;21.90;99.90
23717;DHT22;22094;52.130;5.598;2022-08-02T21:35:15;21.80;99.90
23717;DHT22;22094;52.130;5.598;2022-08-02T21:37:42;21.80;99.90
23717;DHT22;22094;52.130;5.598;2022-08-02T21:40:08;21.80;99.90
23717;DHT22;22094;52.130;5.598;2022-08-02T21:42:34;21.70;99.90
23717;DHT22;22094;52.130;5.598;2022-08-02T21:44:59;21.60;99.90
23717;DHT22;22094;52.130;5.598;2022-08-02T21:47:25;21.60;99.90
23717;DHT22;22094;52.130;5.598;2022-08-02T21:49:51;21.60;99.90
23717;DHT22;22094;52.130;5.598;2022-08-02T21:52:18;21.60;99.90
23717;DHT22;22094;52.130;5.598;2022-08-02T21:54:44;21.30;99.90
23717;DHT22;22094;52.130;5.598;2022-08-02T21:57:13;21.60;99.90
23717;DHT22;22094;52.130;5.598;2022-08-02T21:59:39;21.50;99.90
23717;DHT22;22094;52.130;5.598;2022-08-02T22:02:04;21.40;99.90
23717;DHT22;22094;52.130;5.598;2022-08-02T22:04:30;21.40;99.90
23717;DHT22;22094;52.130;5.598;2022-08-02T22:06:56;21.30;99.90
23717;DHT22;22094;52.130;5.598;2022-08-02T22:09:23;21.30;99.90
23717;DHT22;22094;52.130;5.598;2022-08-02T22:11:49;21.30;99.90
23717;DHT22;22094;52.130;5.598;2022-08-02T22:14:14;21.20;99.90
23717;DHT22;22094;52.130;5.598;2022-08-02T22:16:40;21.20;99.90
23717;DHT22;22094;52.130;5.598;2022-08-02T22:19:05;21.10;99.90
23717;DHT22;22094;52.130;5.598;2022-08-02T22:21:31;21.10;99.90
23717;DHT22;22094;52.130;5.598;2022-08-02T22:23:56;21.00;99.90
23717;DHT22;22094;52.130;5.598;2022-08-02T22:26:22;21.00;99.90
23717;DHT22;22094;52.130;5.598;2022-08-02T22:28:48;21.00;99.90
23717;DHT22;22094;52.130;5.598;2022-08-02T22:31:13;20.90;99.90
23717;DHT22;22094;52.130;5.598;2022-08-02T22:33:39;20.80;99.90
23717;DHT22;22094;52.130;5.598;2022-08-02T22:36:24;20.70;99.90
23717;DHT22;22094;52.130;5.598;2022-08-02T22:38:49;20.70;99.90
23717;DHT22;22094;52.130;5.598;2022-08-02T22:41:15;20.70;99.90
23717;DHT22;22094;52.130;5.598;2022-08-02T22:43:41;20.70;99.90
23717;DHT22;22094;52.130;5.598;2022-08-02T22:46:08;20.60;99.90
23717;DHT22;22094;52.130;5.598;2022-08-02T22:48:34;20.60;99.90
23717;DHT22;22094;52.130;5.598;2022-08-02T22:50:59;20.50;99.90
23717;DHT22;22094;52.130;5.598;2022-08-02T22:53:25;20.60;99.90
23717;DHT22;22094;52.130;5.598;2022-08-02T22:55:51;20.60;99.90
23717;DHT22;22094;52.130;5.598;2022-08-02T22:58:16;20.50;99.90
23717;DHT22;22094;52.130;5.598;2022-08-02T23:00:42;20.40;99.90
23717;DHT22;22094;52.130;5.598;2022-08-02T23:03:07;20.40;99.90
23717;DHT22;22094;52.130;5.598;2022-08-02T23:05:33;20.30;99.90
23717;DHT22;22094;52.130;5.598;2022-08-02T23:07:59;20.20;99.90
23717;DHT22;22094;52.130;5.598;2022-08-02T23:10:25;20.20;99.90
23717;DHT22;22094;52.130;5.598;2022-08-02T23:12:50;20.30;99.90
23717;DHT22;22094;52.130;5.598;2022-08-02T23:15:21;20.10;99.90
23717;DHT22;22094;52.130;5.598;2022-08-02T23:17:46;20.00;99.90
23717;DHT22;22094;52.130;5.598;2022-08-02T23:20:30;20.00;99.90
23717;DHT22;22094;52.130;5.598;2022-08-02T23:22:56;19.90;99.90
23717;DHT22;22094;52.130;5.598;2022-08-02T23:25:22;20.00;99.90
23717;DHT22;22094;52.130;5.598;2022-08-02T23:27:47;19.90;99.90
23717;DHT22;22094;52.130;5.598;2022-08-02T23:30:14;19.80;99.90
23717;DHT22;22094;52.130;5.598;2022-08-02T23:32:40;19.80;99.90
23717;DHT22;22094;52.130;5.598;2022-08-02T23:35:06;19.70;99.90
23717;DHT22;22094;52.130;5.598;2022-08-02T23:37:32;19.70;99.90
23717;DHT22;22094;52.130;5.598;2022-08-02T23:39:57;19.70;99.90
23717;DHT22;22094;52.130;5.598;2022-08-02T23:42:23;19.60;99.90
23717;DHT22;22094;52.130;5.598;2022-08-02T23:44:52;19.60;99.90
23717;DHT22;22094;52.130;5.598;2022-08-02T23:47:19;19.50;99.90
23717;DHT22;22094;52.130;5.598;2022-08-02T23:49:45;19.60;99.90
23717;DHT22;22094;52.130;5.598;2022-08-02T23:52:10;19.50;99.90
23717;DHT22;22094;52.130;5.598;2022-08-02T23:54:36;19.60;99.90
23717;DHT22;22094;52.130;5.598;2022-08-02T23:57:03;19.50;99.90
23717;DHT22;22094;52.130;5.598;2022-08-02T23:59:29;19.40;99.90
